createdAt,value
2018-12-17T00:01:20.219Z,1.80
2018-12-17T00:03:48.445Z,1.81
2018-12-17T00:06:16.669Z,1.82
2018-12-17T00:08:45.207Z,1.79
2018-12-17T00:11:13.537Z,1.54
2018-12-17T00:13:41.750Z,1.57
2018-12-17T00:16:09.916Z,1.65
2018-12-17T00:18:38.072Z,1.68
2018-12-17T00:21:07.546Z,1.78
2018-12-17T00:23:36.232Z,1.72
2018-12-17T00:26:04.519Z,1.59
2018-12-17T00:28:32.768Z,1.38
2018-12-17T00:31:00.984Z,1.26
2018-12-17T00:33:29.543Z,1.39
2018-12-17T00:35:57.793Z,1.35
2018-12-17T00:38:26.436Z,1.33
2018-12-17T00:40:54.993Z,1.44
2018-12-17T00:43:23.430Z,1.48
2018-12-17T00:45:52.382Z,1.45
2018-12-17T00:48:21.029Z,1.21
2018-12-17T00:50:49.255Z,1.13
2018-12-17T00:53:17.453Z,1.17
2018-12-17T00:55:45.729Z,1.15
2018-12-17T00:58:15.285Z,1.23
2018-12-17T01:00:43.796Z,1.26
2018-12-17T01:03:12.127Z,1.34
2018-12-17T01:05:40.359Z,1.37
2018-12-17T01:08:08.749Z,1.54
2018-12-17T01:10:37.026Z,1.64
2018-12-17T01:13:05.208Z,1.67
2018-12-17T01:15:33.368Z,1.61
2018-12-17T01:18:01.607Z,1.60
2018-12-17T01:20:30.663Z,1.57
2018-12-17T01:22:58.881Z,1.55
2018-12-17T01:25:27.182Z,1.61
2018-12-17T01:27:55.407Z,1.63
2018-12-17T01:30:23.600Z,1.65
2018-12-17T01:32:51.793Z,1.69
2018-12-17T01:35:20.005Z,1.64
2018-12-17T01:37:48.200Z,1.67
2018-12-17T01:40:16.552Z,1.74
2018-12-17T01:42:44.896Z,1.76
2018-12-17T01:45:13.159Z,1.70
2018-12-17T01:47:41.384Z,1.62
2018-12-17T01:50:09.628Z,1.65
2018-12-17T01:52:37.778Z,1.68
2018-12-17T01:55:06.101Z,1.61
2018-12-17T01:57:34.469Z,1.52
2018-12-17T02:00:02.807Z,1.59
2018-12-17T02:02:30.998Z,1.66
2018-12-17T02:04:59.331Z,1.74
2018-12-17T02:07:27.673Z,1.78
2018-12-17T02:09:56.176Z,1.80
2018-12-17T02:12:24.364Z,1.73
2018-12-17T02:14:52.574Z,1.71
2018-12-17T02:17:20.738Z,1.68
2018-12-17T02:19:49.644Z,1.70
2018-12-17T02:22:17.916Z,1.29
2018-12-17T02:24:46.124Z,0.95
2018-12-17T02:27:14.294Z,1.13
2018-12-17T02:29:42.570Z,1.28
2018-12-17T02:32:10.746Z,1.41
2018-12-17T02:34:39.945Z,1.45
2018-12-17T02:37:08.144Z,1.50
2018-12-17T02:39:36.406Z,1.51
2018-12-17T02:42:04.706Z,1.54
2018-12-17T02:44:32.877Z,1.57
2018-12-17T02:47:01.320Z,1.73
2018-12-17T02:49:29.865Z,1.80
2018-12-17T02:51:58.120Z,1.89
2018-12-17T02:54:26.305Z,1.85
2018-12-17T02:56:54.501Z,1.85
2018-12-17T02:59:22.714Z,1.83
2018-12-17T03:01:50.898Z,1.83
2018-12-17T03:04:19.078Z,1.88
2018-12-17T03:06:47.325Z,1.88
2018-12-17T03:09:15.533Z,2.07
2018-12-17T03:11:44.082Z,2.00
2018-12-17T03:14:12.335Z,2.01
2018-12-17T03:16:40.540Z,1.93
2018-12-17T03:19:08.771Z,1.86
2018-12-17T03:21:37.066Z,1.91
2018-12-17T03:24:05.478Z,1.83
2018-12-17T03:26:33.676Z,1.67
2018-12-17T03:29:01.907Z,1.54
2018-12-17T03:31:31.183Z,1.45
2018-12-17T03:33:59.581Z,1.36
2018-12-17T03:36:28.077Z,1.36
2018-12-17T03:38:56.267Z,1.34
2018-12-17T03:41:24.446Z,1.37
2018-12-17T03:43:52.754Z,1.37
2018-12-17T03:46:21.022Z,1.42
2018-12-17T03:48:49.680Z,1.45
2018-12-17T03:51:17.895Z,1.48
2018-12-17T03:53:46.223Z,1.53
2018-12-17T03:56:14.458Z,1.54
2018-12-17T03:58:43.465Z,1.69
2018-12-17T04:01:12.066Z,1.80
2018-12-17T04:03:40.281Z,1.86
2018-12-17T04:06:21.492Z,1.65
2018-12-17T04:08:49.640Z,1.77
2018-12-17T04:11:17.905Z,1.53
2018-12-17T04:13:46.097Z,1.17
2018-12-17T04:16:14.265Z,1.11
2018-12-17T04:18:42.543Z,1.19
2018-12-17T04:21:10.698Z,1.20
2018-12-17T04:23:38.875Z,1.18
2018-12-17T04:26:07.071Z,1.16
2018-12-17T04:28:35.202Z,1.23
2018-12-17T04:31:03.685Z,1.34
2018-12-17T04:33:31.902Z,1.42
2018-12-17T04:36:00.054Z,1.48
2018-12-17T04:38:28.205Z,1.60
2018-12-17T04:40:56.412Z,1.67
2018-12-17T04:43:24.960Z,1.69
2018-12-17T04:45:53.184Z,1.67
2018-12-17T04:48:21.327Z,1.68
2018-12-17T04:50:49.506Z,1.66
2018-12-17T04:53:17.651Z,1.59
2018-12-17T04:55:45.870Z,1.52
2018-12-17T04:58:14.031Z,1.56
2018-12-17T05:00:42.266Z,1.57
2018-12-17T05:03:10.479Z,1.80
2018-12-17T05:05:38.638Z,1.83
2018-12-17T05:08:07.846Z,1.89
2018-12-17T05:10:36.128Z,1.93
2018-12-17T05:13:04.404Z,2.03
2018-12-17T05:15:32.570Z,2.24
2018-12-17T05:18:00.737Z,2.18
2018-12-17T05:20:29.174Z,2.34
2018-12-17T05:22:57.304Z,2.30
2018-12-17T05:25:25.455Z,2.21
2018-12-17T05:27:53.579Z,2.09
2018-12-17T05:30:21.810Z,2.08
2018-12-17T05:32:50.266Z,1.97
2018-12-17T05:35:18.463Z,1.85
2018-12-17T05:37:46.643Z,1.81
2018-12-17T05:40:14.826Z,1.89
2018-12-17T05:42:42.955Z,1.90
2018-12-17T05:45:11.443Z,1.90
2018-12-17T05:47:39.583Z,1.88
2018-12-17T05:50:07.887Z,1.71
2018-12-17T05:52:36.028Z,1.75
2018-12-17T05:55:04.791Z,1.79
2018-12-17T05:57:33.953Z,1.78
2018-12-17T06:00:02.339Z,1.71
2018-12-17T06:02:30.534Z,1.69
2018-12-17T06:04:58.704Z,1.69
2018-12-17T06:07:26.889Z,1.69
2018-12-17T06:09:55.319Z,1.72
2018-12-17T06:12:23.449Z,1.77
2018-12-17T06:14:51.594Z,1.78
2018-12-17T06:17:19.773Z,1.96
2018-12-17T06:19:47.899Z,1.88
2018-12-17T06:22:16.056Z,1.92
2018-12-17T06:24:44.186Z,1.98
2018-12-17T06:27:12.353Z,1.98
2018-12-17T06:29:40.575Z,2.00
2018-12-17T06:32:08.717Z,1.98
2018-12-17T06:34:36.944Z,1.91
2018-12-17T06:37:05.076Z,1.83
2018-12-17T06:39:33.207Z,1.88
2018-12-17T06:42:01.354Z,1.84
2018-12-17T06:44:29.646Z,1.90
2018-12-17T06:46:58.597Z,1.90
2018-12-17T06:49:26.742Z,1.90
2018-12-17T06:51:55.257Z,1.89
2018-12-17T06:54:23.699Z,1.89
2018-12-17T06:56:51.835Z,1.89
2018-12-17T06:59:22.993Z,1.93
2018-12-17T07:01:51.184Z,2.01
2018-12-17T07:04:19.357Z,2.08
2018-12-17T07:06:47.550Z,2.10
2018-12-17T07:09:15.685Z,2.06
2018-12-17T07:11:45.082Z,1.89
2018-12-17T07:14:13.706Z,1.91
2018-12-17T07:16:41.853Z,1.91
2018-12-17T07:19:09.998Z,1.91
2018-12-17T07:21:38.120Z,1.96
2018-12-17T07:24:06.708Z,2.03
2018-12-17T07:26:34.880Z,2.00
2018-12-17T07:29:03.095Z,1.99
2018-12-17T07:31:31.239Z,1.91
2018-12-17T07:33:59.487Z,1.82
2018-12-17T07:36:28.503Z,1.60
2018-12-17T07:38:56.644Z,1.57
2018-12-17T07:41:25.028Z,1.64
2018-12-17T07:43:53.294Z,1.68
2018-12-17T07:46:21.484Z,1.72
2018-12-17T07:48:49.864Z,1.86
2018-12-17T07:51:18.081Z,2.02
2018-12-17T07:53:46.204Z,2.17
2018-12-17T07:56:14.379Z,2.23
2018-12-17T07:58:42.596Z,2.24
2018-12-17T08:01:10.980Z,2.21
2018-12-17T08:03:39.099Z,2.15
2018-12-17T08:06:07.279Z,2.11
2018-12-17T08:08:35.778Z,2.15
2018-12-17T08:11:04.037Z,2.13
2018-12-17T08:13:32.533Z,2.13
2018-12-17T08:16:01.553Z,2.16
2018-12-17T08:18:29.689Z,2.23
2018-12-17T08:20:57.973Z,2.38
2018-12-17T08:23:26.104Z,2.65
2018-12-17T08:25:54.577Z,2.69
2018-12-17T08:28:22.790Z,2.41
2018-12-17T08:30:50.998Z,2.24
2018-12-17T08:33:19.168Z,2.53
2018-12-17T08:35:47.505Z,2.48
2018-12-17T08:38:16.025Z,2.52
2018-12-17T08:40:44.982Z,2.52
2018-12-17T08:43:13.156Z,2.59
2018-12-17T08:45:41.340Z,2.64
2018-12-17T08:48:11.111Z,2.72
2018-12-17T08:50:39.272Z,2.71
2018-12-17T08:53:07.497Z,2.57
2018-12-17T08:55:36.133Z,2.65
2018-12-17T08:58:04.565Z,2.64
2018-12-17T09:00:32.729Z,2.56
2018-12-17T09:03:00.958Z,2.33
2018-12-17T09:05:29.100Z,2.13
2018-12-17T09:07:57.231Z,2.20
2018-12-17T09:10:25.803Z,2.30
2018-12-17T09:12:53.951Z,2.44
2018-12-17T09:15:22.278Z,2.45
2018-12-17T09:17:50.463Z,2.51
2018-12-17T09:20:18.734Z,2.47
2018-12-17T09:22:48.454Z,2.46
2018-12-17T09:25:16.603Z,2.41
2018-12-17T09:27:44.777Z,2.55
2018-12-17T09:30:18.231Z,2.73
2018-12-17T09:32:43.147Z,2.90
2018-12-17T09:35:12.346Z,3.01
2018-12-17T09:37:40.831Z,3.17
2018-12-17T09:40:09.221Z,3.38
2018-12-17T09:42:37.357Z,3.59
2018-12-17T09:45:07.383Z,3.50
2018-12-17T09:47:35.607Z,3.49
2018-12-17T09:50:04.160Z,3.64
2018-12-17T09:52:32.398Z,3.72
2018-12-17T09:55:00.635Z,3.76
2018-12-17T09:57:28.764Z,3.69
2018-12-17T09:59:57.358Z,3.56
2018-12-17T10:02:25.499Z,3.48
2018-12-17T10:04:53.723Z,3.24
2018-12-17T10:07:22.180Z,3.36
2018-12-17T10:09:50.319Z,3.30
2018-12-17T10:12:18.454Z,3.47
2018-12-17T10:14:47.111Z,3.56
2018-12-17T10:17:15.243Z,3.63
2018-12-17T10:19:43.482Z,3.63
2018-12-17T10:22:12.049Z,3.65
2018-12-17T10:24:40.260Z,3.86
2018-12-17T10:27:08.426Z,4.04
2018-12-17T10:29:37.389Z,4.20
2018-12-17T10:32:05.604Z,4.50
2018-12-17T10:34:33.777Z,4.87
2018-12-17T10:37:02.001Z,5.06
2018-12-17T10:39:30.215Z,5.14
2018-12-17T10:41:58.407Z,5.29
2018-12-17T10:44:28.073Z,5.48
2018-12-17T10:46:56.639Z,5.68
2018-12-17T10:49:24.822Z,6.01
2018-12-17T10:51:53.339Z,6.16
2018-12-17T10:54:22.024Z,6.30
2018-12-17T10:56:50.217Z,6.16
2018-12-17T10:59:19.090Z,6.06
2018-12-17T11:01:59.314Z,5.90
2018-12-17T11:04:33.506Z,5.81
2018-12-17T11:07:01.910Z,5.81
2018-12-17T11:09:30.091Z,5.95
2018-12-17T11:11:58.331Z,6.10
2018-12-17T11:14:26.561Z,6.24
2018-12-17T11:16:54.925Z,6.42
2018-12-17T11:19:23.951Z,6.66
2018-12-17T11:21:52.207Z,6.65
2018-12-17T11:24:20.377Z,6.74
2018-12-17T11:26:48.523Z,6.74
2018-12-17T11:29:16.718Z,6.53
2018-12-17T11:31:44.891Z,6.51
2018-12-17T11:34:14.509Z,6.40
2018-12-17T11:36:42.676Z,6.35
2018-12-17T11:39:11.026Z,6.31
2018-12-17T11:41:40.113Z,6.08
2018-12-17T11:44:08.250Z,6.03
2018-12-17T11:46:36.403Z,5.96
2018-12-17T11:49:05.348Z,6.06
2018-12-17T11:51:33.557Z,6.08
2018-12-17T11:54:01.686Z,6.06
2018-12-17T11:57:00.594Z,6.14
2018-12-17T11:59:28.809Z,6.06
2018-12-17T12:01:57.042Z,6.12
2018-12-17T12:04:25.245Z,6.05
2018-12-17T12:06:53.415Z,6.04
2018-12-17T12:09:27.942Z,6.00
2018-12-17T12:11:56.069Z,6.02
2018-12-17T12:14:24.288Z,6.07
2018-12-17T12:16:52.734Z,6.20
2018-12-17T12:19:20.933Z,6.27
2018-12-17T12:21:49.103Z,6.50
2018-12-17T12:24:17.280Z,6.29
2018-12-17T12:26:45.450Z,6.28
2018-12-17T12:29:14.323Z,6.22
2018-12-17T12:31:42.511Z,6.24
2018-12-17T12:34:10.790Z,6.21
2018-12-17T12:36:39.490Z,6.20
2018-12-17T12:39:07.779Z,6.18
2018-12-17T12:41:35.932Z,6.32
2018-12-17T12:44:08.776Z,6.18
2018-12-17T12:46:34.848Z,6.32
2018-12-17T12:49:03.008Z,6.27
2018-12-17T12:51:33.123Z,6.28
2018-12-17T12:54:01.250Z,6.17
2018-12-17T12:56:29.381Z,6.23
2018-12-17T12:58:58.764Z,6.18
2018-12-17T13:01:26.955Z,6.23
2018-12-17T13:03:55.084Z,6.26
2018-12-17T13:06:24.089Z,6.62
2018-12-17T13:08:52.298Z,6.67
2018-12-17T13:11:20.561Z,6.47
2018-12-17T13:13:49.329Z,6.57
2018-12-17T13:16:17.461Z,6.62
2018-12-17T13:18:45.571Z,6.49
2018-12-17T13:21:14.444Z,6.56
2018-12-17T13:23:42.577Z,6.76
2018-12-17T13:26:10.729Z,6.77
2018-12-17T13:28:39.594Z,6.79
2018-12-17T13:31:14.473Z,6.75
2018-12-17T13:33:37.903Z,6.79
2018-12-17T13:36:06.981Z,6.72
2018-12-17T13:38:35.096Z,6.78
2018-12-17T13:41:02.687Z,6.80
2018-12-17T13:43:31.092Z,6.63
2018-12-17T13:45:59.304Z,6.57
2018-12-17T13:48:27.427Z,6.52
2018-12-17T13:50:57.804Z,6.33
2018-12-17T13:53:31.440Z,6.41
2018-12-17T13:55:59.947Z,6.31
2018-12-17T13:58:28.153Z,6.29
2018-12-17T14:00:56.321Z,6.25
2018-12-17T14:03:24.526Z,6.09
2018-12-17T14:05:52.677Z,6.12
2018-12-17T14:08:20.930Z,6.20
2018-12-17T14:10:54.443Z,6.19
2018-12-17T14:13:23.138Z,6.27
2018-12-17T14:15:51.575Z,6.28
2018-12-17T14:18:25.694Z,6.33
2018-12-17T14:20:59.498Z,6.40
2018-12-17T14:23:29.018Z,6.59
2018-12-17T14:25:57.163Z,6.65
2018-12-17T14:28:25.362Z,6.78
2018-12-17T14:30:53.572Z,6.70
2018-12-17T14:33:21.758Z,6.63
2018-12-17T14:35:55.376Z,6.54
2018-12-17T14:38:23.650Z,6.52
2018-12-17T14:40:51.915Z,6.62
2018-12-17T14:43:20.795Z,6.73
2018-12-17T14:45:48.983Z,6.57
2018-12-17T14:48:17.143Z,6.68
2018-12-17T14:50:45.377Z,6.70
2018-12-17T14:53:13.700Z,6.72
2018-12-17T14:55:41.870Z,6.66
2018-12-17T14:58:10.224Z,6.68
2018-12-17T15:00:38.633Z,6.61
2018-12-17T15:03:06.931Z,6.61
2018-12-17T15:05:35.201Z,6.68
2018-12-17T15:08:03.351Z,6.64
2018-12-17T15:10:31.998Z,6.56
2018-12-17T15:13:00.670Z,6.62
2018-12-17T15:15:28.855Z,6.48
2018-12-17T15:17:57.515Z,6.40
2018-12-17T15:20:25.718Z,6.38
2018-12-17T15:22:54.326Z,6.30
2018-12-17T15:25:26.065Z,6.34
2018-12-17T15:27:54.327Z,6.57
2018-12-17T15:30:22.601Z,6.54
2018-12-17T15:32:51.303Z,6.50
2018-12-17T15:35:19.496Z,6.46
2018-12-17T15:37:47.625Z,6.44
2018-12-17T15:40:16.252Z,6.44
2018-12-17T15:42:44.416Z,6.74
2018-12-17T15:45:12.540Z,6.81
2018-12-17T15:47:40.817Z,6.88
2018-12-17T15:50:09.331Z,6.81
2018-12-17T15:52:37.633Z,6.70
2018-12-17T15:55:05.931Z,6.63
2018-12-17T15:57:34.140Z,6.58
2018-12-17T16:00:04.055Z,6.58
2018-12-17T16:02:32.240Z,6.55
2018-12-17T16:05:00.479Z,6.60
2018-12-17T16:07:29.462Z,6.63
2018-12-17T16:09:57.696Z,6.56
2018-12-17T16:12:26.049Z,6.55
2018-12-17T16:14:54.878Z,6.46
2018-12-17T16:17:23.325Z,6.41
2018-12-17T16:19:52.199Z,6.26
2018-12-17T16:22:20.368Z,6.05
2018-12-17T16:24:48.689Z,5.94
2018-12-17T16:27:19.417Z,5.76
2018-12-17T16:29:48.024Z,5.66
2018-12-17T16:32:16.201Z,5.59
2018-12-17T16:34:46.188Z,5.40
2018-12-17T16:37:14.349Z,5.45
2018-12-17T16:39:42.688Z,5.41
2018-12-17T16:42:11.304Z,5.23
2018-12-17T16:44:39.579Z,5.23
2018-12-17T16:47:07.775Z,5.32
2018-12-17T16:49:37.068Z,5.38
2018-12-17T16:52:05.263Z,5.47
2018-12-17T16:54:34.200Z,5.52
2018-12-17T16:57:02.403Z,5.70
2018-12-17T16:59:30.567Z,5.85
2018-12-17T17:02:04.475Z,5.91
2018-12-17T17:04:30.975Z,5.86
2018-12-17T17:06:59.444Z,5.91
2018-12-17T17:09:27.761Z,5.97
2018-12-17T17:11:56.004Z,5.94
2018-12-17T17:14:24.296Z,5.97
2018-12-17T17:16:52.635Z,6.03
2018-12-17T17:19:20.816Z,6.08
2018-12-17T17:21:49.447Z,6.13
2018-12-17T17:24:18.462Z,6.13
2018-12-17T17:26:47.034Z,6.16
2018-12-17T17:29:15.283Z,6.17
2018-12-17T17:31:43.871Z,6.22
2018-12-17T17:34:12.112Z,6.20
2018-12-17T17:36:40.350Z,6.21
2018-12-17T17:39:09.151Z,6.24
2018-12-17T17:41:38.014Z,6.25
2018-12-17T17:44:07.092Z,6.31
2018-12-17T17:46:35.732Z,6.37
2018-12-17T17:49:03.914Z,6.36
2018-12-17T17:51:32.206Z,6.30
2018-12-17T17:54:01.068Z,6.32
2018-12-17T17:56:29.434Z,6.23
2018-12-17T17:58:57.834Z,6.29
2018-12-17T18:01:28.267Z,6.27
2018-12-17T18:03:56.502Z,6.38
2018-12-17T18:06:24.775Z,6.36
2018-12-17T18:08:53.015Z,6.30
2018-12-17T18:11:22.017Z,6.30
2018-12-17T18:13:50.268Z,6.27
2018-12-17T18:16:18.592Z,6.19
2018-12-17T18:18:46.787Z,6.11
2018-12-17T18:21:15.564Z,5.98
2018-12-17T18:23:44.242Z,5.97
2018-12-17T18:26:12.623Z,6.04
2018-12-17T18:28:40.825Z,6.09
2018-12-17T18:31:09.010Z,6.10
2018-12-17T18:33:37.617Z,6.04
2018-12-17T18:36:05.733Z,5.99
2018-12-17T18:38:35.214Z,6.07
2018-12-17T18:41:03.924Z,6.10
2018-12-17T18:43:32.184Z,6.05
2018-12-17T18:46:00.643Z,5.97
2018-12-17T18:48:28.825Z,5.98
2018-12-17T18:50:57.008Z,6.04
2018-12-17T18:53:25.872Z,6.11
2018-12-17T18:55:53.995Z,6.35
2018-12-17T18:58:22.144Z,6.27
2018-12-17T19:00:50.633Z,6.12
2018-12-17T19:03:18.900Z,5.95
2018-12-17T19:05:47.078Z,5.91
2018-12-17T19:08:15.580Z,5.99
2018-12-17T19:10:49.009Z,6.08
2018-12-17T19:13:17.259Z,6.02
2018-12-17T19:15:45.400Z,5.89
2018-12-17T19:18:13.658Z,5.83
2018-12-17T19:20:41.875Z,5.89
2018-12-17T19:23:10.042Z,5.96
2018-12-17T19:25:38.192Z,6.06
2018-12-17T19:28:07.263Z,5.97
2018-12-17T19:30:35.464Z,5.88
2018-12-17T19:33:03.651Z,5.95
2018-12-17T19:35:31.811Z,6.01
2018-12-17T19:37:59.956Z,6.20
2018-12-17T19:40:28.156Z,6.26
2018-12-17T19:42:56.346Z,6.21
2018-12-17T19:45:24.499Z,6.21
2018-12-17T19:47:52.623Z,6.14
2018-12-17T19:50:20.779Z,6.08
2018-12-17T19:52:49.720Z,6.18
2018-12-17T19:55:18.028Z,6.26
2018-12-17T19:57:46.156Z,6.27
2018-12-17T20:00:14.405Z,6.32
2018-12-17T20:02:46.935Z,6.23
2018-12-17T20:05:13.043Z,6.24
2018-12-17T20:07:41.242Z,6.23
2018-12-17T20:10:13.710Z,6.29
2018-12-17T20:12:41.908Z,6.27
2018-12-17T20:15:10.166Z,6.33
2018-12-17T20:17:38.404Z,6.23
2018-12-17T20:20:07.234Z,6.18
2018-12-17T20:22:35.445Z,6.12
2018-12-17T20:25:03.680Z,6.12
2018-12-17T20:27:32.135Z,6.01
2018-12-17T20:30:01.214Z,5.87
2018-12-17T20:32:29.423Z,5.90
2018-12-17T20:34:57.568Z,5.72
2018-12-17T20:37:26.054Z,5.62
2018-12-17T20:39:54.259Z,5.54
2018-12-17T20:42:22.407Z,5.49
2018-12-17T20:44:51.394Z,5.54
2018-12-17T20:47:19.552Z,5.52
2018-12-17T20:49:47.676Z,5.53
2018-12-17T20:52:15.818Z,5.45
2018-12-17T20:54:43.947Z,5.48
2018-12-17T20:57:12.098Z,5.50
2018-12-17T20:59:40.262Z,5.58
2018-12-17T21:02:08.434Z,5.50
2018-12-17T21:04:36.692Z,5.47
2018-12-17T21:07:04.811Z,5.49
2018-12-17T21:09:34.037Z,5.42
2018-12-17T21:12:02.264Z,5.37
2018-12-17T21:14:30.411Z,5.48
2018-12-17T21:16:58.607Z,5.53
2018-12-17T21:19:26.859Z,5.53
2018-12-17T21:21:55.130Z,5.54
2018-12-17T21:24:23.442Z,5.55
2018-12-17T21:26:51.591Z,5.62
2018-12-17T21:29:20.765Z,5.72
2018-12-17T21:31:48.884Z,5.68
2018-12-17T21:34:17.024Z,5.67
2018-12-17T21:36:45.228Z,5.63
2018-12-17T21:39:13.388Z,5.58
2018-12-17T21:41:42.216Z,5.60
2018-12-17T21:44:10.548Z,5.61
2018-12-17T21:46:38.734Z,5.60
2018-12-17T21:49:11.883Z,5.55
2018-12-17T21:51:39.995Z,5.42
2018-12-17T21:54:08.159Z,5.37
2018-12-17T21:56:36.335Z,5.43
2018-12-17T21:59:04.608Z,5.35
2018-12-17T22:01:32.778Z,5.26
2018-12-17T22:04:00.980Z,5.39
2018-12-17T22:06:29.158Z,5.37
2018-12-17T22:08:58.224Z,5.29
2018-12-17T22:11:26.392Z,5.21
2018-12-17T22:13:54.597Z,5.22
2018-12-17T22:16:22.738Z,5.20
2018-12-17T22:18:50.875Z,5.18
2018-12-17T22:21:18.999Z,5.22
2018-12-17T22:23:47.167Z,5.20
2018-12-17T22:26:15.428Z,5.32
2018-12-17T22:28:43.621Z,5.41
2018-12-17T22:31:11.768Z,5.39
2018-12-17T22:33:39.947Z,5.50
2018-12-17T22:36:08.503Z,5.38
2018-12-17T22:38:36.722Z,5.37
2018-12-17T22:41:04.859Z,5.39
2018-12-17T22:43:33.059Z,5.54
2018-12-17T22:46:01.541Z,5.48
2018-12-17T22:48:30.168Z,5.55
2018-12-17T22:50:58.300Z,5.61
2018-12-17T22:53:26.466Z,5.68
2018-12-17T22:55:54.640Z,5.61
2018-12-17T22:58:22.783Z,5.62
2018-12-17T23:00:51.140Z,5.72
2018-12-17T23:03:19.333Z,5.74
2018-12-17T23:05:47.533Z,5.79
2018-12-17T23:08:15.685Z,6.00
2018-12-17T23:10:55.292Z,5.84
2018-12-17T23:13:35.158Z,5.97
2018-12-17T23:16:14.587Z,5.97
2018-12-17T23:18:42.571Z,5.89
2018-12-17T23:21:10.707Z,5.84
2018-12-17T23:23:39.015Z,5.79
2018-12-17T23:26:07.223Z,5.82
2018-12-17T23:28:35.506Z,5.85
2018-12-17T23:31:05.839Z,5.91
2018-12-17T23:33:34.398Z,5.89
2018-12-17T23:36:02.777Z,5.78
2018-12-17T23:38:30.948Z,5.69
2018-12-17T23:40:59.139Z,5.58
2018-12-17T23:43:27.311Z,5.58
2018-12-17T23:45:55.471Z,5.63
2018-12-17T23:48:23.713Z,5.73
2018-12-17T23:50:51.858Z,5.76
2018-12-17T23:53:19.995Z,5.81
2018-12-17T23:55:48.465Z,5.66
2018-12-17T23:58:16.637Z,5.55
